Aérodrome :
LOGIN :

S'inscrire | Disclaimer

   EN    FR    IT 

 










Légende :    VFR   VFR Marginal   IFR   IFR Intensif   IFR Très Intensif
Visi : 
Plafond : 
>= 8 km
>= 3000ft
5 à 8 km
1000 à 3000 ft
1500m à 5 km
500 à 1000 ft
800 à 1500m
200 à 500 ft
< 800m
< 200 ft
Symboles :   Orages  Brouillard  Fortes neiges  Fortes précipitations  Vent > 20 kt
SIGMETs :   Divers  Orages  Givrage  Turbulence  Onde Orograph.  Cendres Volcan.






- Altitude de l'aérodrome : 600 ft
- Code IATA : VIE


LOWW - Vienna Schwechat

DERNIER METAR :
  • 200020Z 25010KT 9999 -RA FEW024 BKN028 07/04 Q1007 NOSIG

METARs EXPIRÉS :
  • 192350Z 26007KT 210V280 9999 -RA FEW030 BKN034 07/04 Q1007 NOSIG
  • 192320Z 19004KT 150V250 9999 -RA FEW032 SCT038 BKN044 07/04 Q1007 TEMPO 27008KT
  • 192250Z 19010KT 160V250 9999 -RA FEW030 SCT040 BKN050 07/04 Q1007 TEMPO 27008KT
  • 192220Z VRB04KT 9999 -RA FEW032 SCT044 BKN050 07/04 Q1007 NOSIG
  • 192150Z VRB01KT 9999 -RA FEW034 SCT046 BKN050 06/05 Q1008 NOSIG
  • 192120Z 15003KT 090V230 9999 FEW046 06/04 Q1008 NOSIG
  • 192050Z VRB01KT 9999 -RA FEW028 BKN050 07/05 Q1008 NOSIG
  • 192020Z VRB02KT 9999 FEW042 BKN050 07/04 Q1008 TEMPO 27008KT SHRA
  • 191950Z 12003KT 080V150 9999 -RA FEW024 SCT032 BKN040 07/05 Q1009 TEMPO SHRA

TAF TAF LOWW
Valide du 20 à 00h jusqu'au 21 à 06h UTC


192315Z 2000/2106 17005KT 9999 FEW030 SCT040 TX10/2010Z TN04/2105Z
TEMPO 2000/2003 -RA
PROB30
TEMPO 2000/2002 25008KT SHRA
BECMG 2001/2003 27010KT
TEMPO 2010/2017 31020G30KT SHRA FEW040CB SCT050
PROB30
TEMPO 2012/2016 TSRA
TEMPO 2017/2023 34018G28KT -SHRA
BECMG 2023/2101 34009KT



MET'MAP, la Météo Aéronautique d'un coup d'oeil ! - Copyright ORBIFLY Décembre 2007 - Disclaimer

ORBIFLY MET'MAP TEAM :

Programmation & Développement : Alexandra Zaïnal
Sur une idée originale de : Baudouin d'Aumeries
Soutien technique & logistique : Manuel Goepfert
Assistance : Marc-Olivier Méhu




SOURCES & CREDITS :

   NOAA